Time;durP1;ratioP1;P1;durP2;ratioP2;P2;SDS_P1;SDS_P2;PMS_P1;PMS_P2;Temp;Humidity;BMP_temperature;BMP_pressure;BME280_temperature;BME280_humidity;BME280_pressure;Samples;Min_cycle;Max_cycle;Signal;HPM_P1;HPM_P2
2021/08/19 00:03:09;;;;;;;10.20;7.15;;;16.50;99.90;;;;;;12503497;28;20090;-44
2021/08/19 00:09:12;;;;;;;11.25;8.18;;;16.50;99.90;;;;;;12521908;28;20101;-45
2021/08/19 00:15:14;;;;;;;11.00;8.07;;;16.60;99.90;;;;;;12520268;28;20107;-45
2021/08/19 00:21:16;;;;;;;11.02;7.72;;;16.60;99.90;;;;;;12520939;28;20167;-46
2021/08/19 00:27:18;;;;;;;11.90;8.00;;;16.60;99.90;;;;;;12531711;28;20071;-46
2021/08/19 00:33:20;;;;;;;12.13;8.05;;;16.40;99.90;;;;;;12527998;28;20394;-47
2021/08/19 00:39:21;;;;;;;9.75;8.30;;;16.10;99.90;;;;;;12532313;28;20052;-45
2021/08/19 00:45:26;;;;;;;12.23;8.15;;;16.10;99.90;;;;;;12531344;28;20090;-45
2021/08/19 00:51:42;;;;;;;13.57;8.23;;;16.00;99.90;;;;;;12530874;28;20053;-50
2021/08/19 00:57:44;;;;;;;14.10;8.68;;;15.90;99.90;;;;;;12530157;28;20049;-43
2021/08/19 01:03:46;;;;;;;13.48;8.90;;;15.80;99.90;;;;;;12529671;28;20045;-44
2021/08/19 01:09:48;;;;;;;12.55;8.93;;;15.70;99.90;;;;;;12531479;28;20069;-45
2021/08/19 01:15:50;;;;;;;10.75;8.18;;;15.80;99.90;;;;;;12526200;28;20155;-44
2021/08/19 01:21:52;;;;;;;12.65;8.75;;;15.80;99.90;;;;;;12525504;28;20157;-44
2021/08/19 01:27:56;;;;;;;12.38;8.63;;;15.70;99.90;;;;;;12531621;28;20076;-44
2021/08/19 01:33:58;;;;;;;11.43;8.85;;;15.70;99.90;;;;;;12527031;28;20091;-44
2021/08/19 01:40:00;;;;;;;12.40;8.73;;;15.70;99.90;;;;;;12525903;28;20053;-44
2021/08/19 01:46:10;;;;;;;10.48;8.32;;;15.60;99.90;;;;;;12525153;28;20084;-44
2021/08/19 01:52:12;;;;;;;13.30;8.57;;;15.70;99.90;;;;;;12525541;28;20052;-45
2021/08/19 01:58:14;;;;;;;10.90;7.90;;;15.80;99.90;;;;;;12524828;28;22685;-46
2021/08/19 02:04:17;;;;;;;10.85;7.88;;;15.80;99.90;;;;;;12523882;28;20512;-45
2021/08/19 02:10:18;;;;;;;13.18;8.43;;;15.80;99.90;;;;;;12516648;28;20080;-46
2021/08/19 02:16:20;;;;;;;14.75;8.82;;;15.90;99.90;;;;;;12526253;28;20081;-48
2021/08/19 02:22:23;;;;;;;15.93;9.50;;;16.10;99.90;;;;;;12524703;28;20053;-44
2021/08/19 02:28:24;;;;;;;13.77;9.75;;;16.00;99.90;;;;;;12523797;28;20373;-44
2021/08/19 02:34:26;;;;;;;15.45;11.50;;;15.90;99.90;;;;;;12523622;28;20140;-45
2021/08/19 02:40:29;;;;;;;16.63;11.48;;;15.90;99.90;;;;;;12522359;28;20509;-45
2021/08/19 02:46:32;;;;;;;18.58;12.98;;;15.80;99.90;;;;;;12502338;28;20583;-45
2021/08/19 02:52:34;;;;;;;16.48;12.65;;;15.70;99.90;;;;;;12522067;28;20052;-46
2021/08/19 02:58:36;;;;;;;15.32;13.20;;;15.70;99.90;;;;;;12520920;28;20469;-45
2021/08/19 03:04:38;;;;;;;16.35;12.30;;;15.80;99.90;;;;;;12519921;28;20144;-45
2021/08/19 03:10:40;;;;;;;15.57;12.68;;;16.00;99.90;;;;;;12522000;28;20049;-44
2021/08/19 03:16:42;;;;;;;18.02;12.05;;;15.90;99.90;;;;;;12519258;28;20135;-45
2021/08/19 03:22:46;;;;;;;17.15;11.82;;;15.90;99.90;;;;;;12520458;28;20079;-45
2021/08/19 03:28:49;;;;;;;16.55;12.38;;;15.90;99.90;;;;;;12519962;28;20049;-45
2021/08/19 03:34:50;;;;;;;17.90;12.55;;;15.80;99.90;;;;;;12518130;28;20106;-44
2021/08/19 03:40:52;;;;;;;18.10;12.43;;;15.90;99.90;;;;;;12520168;28;20053;-44
2021/08/19 03:46:54;;;;;;;13.52;11.77;;;16.10;99.90;;;;;;12493531;28;20055;-45
2021/08/19 03:52:59;;;;;;;17.70;12.85;;;16.30;99.90;;;;;;12516215;28;20126;-44
2021/08/19 03:59:01;;;;;;;17.40;12.15;;;16.20;99.90;;;;;;12521813;28;20056;-45
2021/08/19 04:05:03;;;;;;;17.95;13.10;;;16.30;99.90;;;;;;12519119;28;20045;-45
2021/08/19 04:11:05;;;;;;;18.90;12.85;;;16.30;99.90;;;;;;12518166;28;20105;-44
2021/08/19 04:17:07;;;;;;;17.80;13.73;;;16.20;99.90;;;;;;12522830;28;20045;-44
2021/08/19 04:23:09;;;;;;;18.15;12.93;;;16.10;99.90;;;;;;12524053;28;20064;-44
2021/08/19 04:29:11;;;;;;;16.75;12.52;;;16.10;99.90;;;;;;12522237;28;20044;-45
2021/08/19 04:35:13;;;;;;;17.23;13.13;;;16.10;99.90;;;;;;12521118;28;20437;-45
2021/08/19 04:41:15;;;;;;;17.10;12.45;;;16.00;99.90;;;;;;12524171;28;20045;-45
2021/08/19 04:47:22;;;;;;;19.35;13.10;;;16.10;99.90;;;;;;12521333;28;20049;-44
2021/08/19 04:53:24;;;;;;;18.92;12.82;;;16.00;99.90;;;;;;12526035;28;20053;-44
2021/08/19 04:59:26;;;;;;;18.15;13.00;;;15.90;99.90;;;;;;12525086;28;20095;-44
2021/08/19 05:05:29;;;;;;;18.05;12.73;;;16.00;99.90;;;;;;12523293;28;20053;-46
2021/08/19 05:11:31;;;;;;;22.08;13.48;;;15.70;99.90;;;;;;12529960;28;20053;-43
2021/08/19 05:17:33;;;;;;;17.88;12.40;;;15.60;99.90;;;;;;12533767;28;20060;-44
2021/08/19 05:23:37;;;;;;;18.60;13.93;;;15.80;99.90;;;;;;12532953;28;20052;-45
2021/08/19 05:29:39;;;;;;;16.80;13.50;;;15.70;99.90;;;;;;12537616;28;20045;-44
2021/08/19 05:35:41;;;;;;;18.92;13.20;;;15.70;99.90;;;;;;12532205;28;20045;-44
2021/08/19 05:41:46;;;;;;;18.23;13.52;;;15.70;99.90;;;;;;12526375;28;20887;-45
2021/08/19 05:47:51;;;;;;;19.55;13.68;;;15.50;99.90;;;;;;12528047;28;20095;-44
2021/08/19 05:53:52;;;;;;;18.17;14.23;;;15.40;99.90;;;;;;12527433;28;20106;-49
2021/08/19 05:59:54;;;;;;;21.55;16.08;;;15.60;99.90;;;;;;12526554;28;20095;-43
2021/08/19 06:05:56;;;;;;;19.17;14.85;;;15.40;99.90;;;;;;12524536;28;20045;-44
2021/08/19 06:11:58;;;;;;;24.83;16.33;;;15.40;99.90;;;;;;12524351;28;20115;-47
2021/08/19 06:18:00;;;;;;;20.52;15.20;;;15.50;99.90;;;;;;12525499;28;20080;-45
2021/08/19 06:24:02;;;;;;;23.73;14.60;;;15.50;99.90;;;;;;12524569;28;20103;-43
2021/08/19 06:30:06;;;;;;;22.88;15.15;;;15.60;99.90;;;;;;12527645;28;20041;-45
2021/08/19 06:36:08;;;;;;;19.77;15.10;;;15.60;99.90;;;;;;12522811;28;20049;-47
2021/08/19 06:42:09;;;;;;;19.10;13.75;;;15.70;99.90;;;;;;12525749;28;20152;-45
2021/08/19 06:48:11;;;;;;;17.05;13.02;;;15.80;99.90;;;;;;12524077;28;20049;-45
2021/08/19 06:54:16;;;;;;;17.73;13.30;;;15.90;99.90;;;;;;12526186;28;20049;-44
2021/08/19 07:00:18;;;;;;;18.00;13.45;;;15.90;99.90;;;;;;12523412;28;20060;-46
2021/08/19 07:06:20;;;;;;;19.33;12.65;;;15.80;99.90;;;;;;12524517;28;20575;-45
2021/08/19 07:12:24;;;;;;;16.83;11.77;;;15.90;99.90;;;;;;12521931;28;20113;-45
2021/08/19 07:18:26;;;;;;;18.20;12.43;;;16.20;99.90;;;;;;12522173;28;20052;-49
2021/08/19 07:24:28;;;;;;;17.08;11.60;;;16.20;99.90;;;;;;12503276;28;20059;-46
2021/08/19 07:30:30;;;;;;;17.33;12.10;;;16.60;99.90;;;;;;12510801;28;20576;-45
2021/08/19 07:36:34;;;;;;;22.10;13.98;;;16.80;99.90;;;;;;12520234;28;20049;-47
2021/08/19 07:42:40;;;;;;;22.27;15.52;;;16.90;99.90;;;;;;12522994;28;20044;-46
2021/08/19 07:48:44;;;;;;;24.85;15.75;;;17.00;99.90;;;;;;12524323;28;20048;-49
2021/08/19 07:54:46;;;;;;;26.58;18.00;;;17.00;99.90;;;;;;12518069;28;20110;-48
2021/08/19 08:00:48;;;;;;;27.85;17.77;;;17.10;99.90;;;;;;12517114;28;20048;-48
2021/08/19 08:06:50;;;;;;;27.42;19.33;;;17.00;99.90;;;;;;12520417;28;20045;-49
2021/08/19 08:12:58;;;;;;;27.17;18.60;;;17.20;99.90;;;;;;12510600;28;20769;-45
2021/08/19 08:19:02;;;;;;;29.23;19.40;;;17.10;99.90;;;;;;12520568;28;20133;-45
2021/08/19 08:25:05;;;;;;;25.95;18.80;;;17.00;99.90;;;;;;12520357;28;20693;-49
2021/08/19 08:31:10;;;;;;;26.45;18.90;;;17.20;99.90;;;;;;12522057;28;20124;-45
2021/08/19 08:37:13;;;;;;;27.02;18.77;;;17.10;99.90;;;;;;12520282;28;20140;-44
2021/08/19 08:43:20;;;;;;;24.13;17.17;;;17.30;99.90;;;;;;12521275;28;20099;-45
2021/08/19 08:49:23;;;;;;;24.17;16.90;;;17.60;99.90;;;;;;12533400;28;20461;-46
2021/08/19 08:55:26;;;;;;;21.97;15.30;;;17.50;99.90;;;;;;12532416;28;20049;-45
2021/08/19 09:01:28;;;;;;;25.33;16.30;;;17.60;99.90;;;;;;12527993;28;20098;-44
2021/08/19 09:07:31;;;;;;;23.67;15.65;;;17.70;99.90;;;;;;12530186;28;20045;-45
2021/08/19 09:13:33;;;;;;;24.10;17.15;;;17.60;99.90;;;;;;12526167;28;20061;-45
2021/08/19 09:19:36;;;;;;;24.45;16.05;;;17.40;99.90;;;;;;12510686;28;20075;-44
2021/08/19 09:25:45;;;;;;;23.65;17.13;;;17.30;99.90;;;;;;12526637;28;20133;-46
2021/08/19 09:31:48;;;;;;;24.55;16.42;;;17.10;99.90;;;;;;12526995;28;20045;-45
2021/08/19 09:37:52;;;;;;;23.50;17.42;;;16.90;99.90;;;;;;12526596;28;20140;-46
2021/08/19 09:43:54;;;;;;;24.90;17.73;;;16.90;99.90;;;;;;12509831;28;20045;-44
2021/08/19 09:50:17;;;;;;;25.00;17.00;;;17.00;99.90;;;;;;12507633;28;20068;-45
2021/08/19 09:56:34;;;;;;;24.77;15.95;;;17.20;99.90;;;;;;12525798;28;20110;-45
2021/08/19 10:02:36;;;;;;;22.55;13.68;;;17.20;99.90;;;;;;12500942;28;20182;-46
2021/08/19 10:08:38;;;;;;;17.35;11.95;;;17.50;99.90;;;;;;12505066;28;20048;-44
2021/08/19 10:14:42;;;;;;;24.63;14.05;;;17.30;99.90;;;;;;12524669;28;20056;-45
2021/08/19 10:20:54;;;;;;;15.07;11.48;;;17.70;99.90;;;;;;12507298;28;20056;-45
2021/08/19 10:27:13;;;;;;;16.50;11.23;;;17.60;99.90;;;;;;12526121;28;20048;-46
2021/08/19 10:33:45;;;;;;;14.60;10.73;;;17.60;99.90;;;;;;12526145;28;20413;-45
2021/08/19 10:39:47;;;;;;;15.55;11.45;;;17.50;99.90;;;;;;12518114;28;20175;-44
2021/08/19 10:46:06;;;;;;;16.77;11.70;;;17.70;99.90;;;;;;12526937;28;20536;-47
2021/08/19 10:52:08;;;;;;;20.38;11.70;;;17.80;99.90;;;;;;12528259;28;20052;-45
2021/08/19 10:58:28;;;;;;;16.63;11.40;;;17.90;99.90;;;;;;12527995;28;20090;-47
2021/08/19 11:04:46;;;;;;;19.30;12.18;;;18.00;99.90;;;;;;12528541;28;20102;-45
2021/08/19 11:10:53;;;;;;;17.25;12.35;;;18.00;99.90;;;;;;12528112;28;20174;-45
2021/08/19 11:16:57;;;;;;;16.85;11.48;;;18.10;99.90;;;;;;12523528;28;20167;-44
2021/08/19 11:23:03;;;;;;;19.33;13.02;;;18.00;99.90;;;;;;12508616;28;20052;-46
2021/08/19 11:29:05;;;;;;;23.10;16.17;;;17.80;99.90;;;;;;12526078;28;20181;-44
2021/08/19 11:35:08;;;;;;;26.33;16.20;;;18.00;99.90;;;;;;12525304;28;20394;-44
2021/08/19 11:41:13;;;;;;;20.42;15.60;;;18.30;99.90;;;;;;12527924;28;20095;-44
2021/08/19 11:47:20;;;;;;;21.67;16.08;;;18.50;99.90;;;;;;12525529;28;20082;-46
2021/08/19 11:53:24;;;;;;;24.52;16.50;;;18.70;99.90;;;;;;12531614;28;20049;-46
2021/08/19 11:59:29;;;;;;;23.92;17.13;;;18.80;99.90;;;;;;12510486;28;20108;-45
2021/08/19 12:05:34;;;;;;;25.23;18.13;;;18.10;99.90;;;;;;12522885;28;20090;-45
2021/08/19 12:11:39;;;;;;;29.52;20.40;;;18.20;99.90;;;;;;12509361;28;20049;-46
2021/08/19 12:17:41;;;;;;;25.95;18.63;;;18.30;99.90;;;;;;12476152;28;20057;-46
2021/08/19 12:23:45;;;;;;;27.23;18.33;;;18.40;99.90;;;;;;12482541;28;20048;-47
2021/08/19 12:29:47;;;;;;;28.95;17.67;;;18.40;99.90;;;;;;12485372;28;20073;-47
2021/08/19 12:36:18;;;;;;;20.73;14.23;;;18.50;99.90;;;;;;12484479;28;20060;-45
2021/08/19 12:42:30;;;;;;;21.60;14.30;;;18.80;99.90;;;;;;12467663;28;20091;-44
2021/08/19 12:48:36;;;;;;;21.83;16.75;;;18.10;99.90;;;;;;12485245;28;20057;-47
2021/08/19 12:54:39;;;;;;;25.50;17.23;;;18.10;99.90;;;;;;12483653;28;20524;-47
2021/08/19 13:00:41;;;;;;;24.67;17.02;;;18.30;99.90;;;;;;12480659;28;20707;-44
2021/08/19 13:06:43;;;;;;;22.00;16.55;;;18.50;99.90;;;;;;12480986;28;20057;-49
2021/08/19 13:12:46;;;;;;;25.20;17.63;;;18.70;99.90;;;;;;12478070;28;20053;-48
2021/08/19 13:18:48;;;;;;;27.65;18.30;;;18.80;99.90;;;;;;12479120;28;20064;-46
2021/08/19 13:24:52;;;;;;;26.50;18.77;;;18.70;99.90;;;;;;12476712;28;20053;-45
2021/08/19 13:30:54;;;;;;;25.20;15.40;;;18.60;99.90;;;;;;12475824;28;20122;-45
2021/08/19 13:36:56;;;;;;;22.95;16.90;;;18.40;99.90;;;;;;12462286;28;20985;-44
2021/08/19 13:42:58;;;;;;;24.67;17.63;;;18.70;99.90;;;;;;12479452;28;20451;-45
2021/08/19 13:49:01;;;;;;;27.70;18.77;;;18.70;99.90;;;;;;12470928;28;20053;-46
2021/08/19 13:55:03;;;;;;;29.17;17.52;;;18.50;99.90;;;;;;12474952;28;20077;-46
2021/08/19 14:01:05;;;;;;;24.02;16.35;;;18.30;99.90;;;;;;12482530;28;20106;-46
2021/08/19 14:07:08;;;;;;;26.02;17.50;;;18.20;99.90;;;;;;12525446;28;20056;-45
2021/08/19 14:13:10;;;;;;;23.25;16.90;;;18.50;99.90;;;;;;12524433;28;20516;-44
2021/08/19 14:19:14;;;;;;;21.57;15.67;;;18.50;99.90;;;;;;12525536;28;20125;-44
2021/08/19 14:25:16;;;;;;;22.02;16.65;;;18.30;99.90;;;;;;12524470;28;20045;-45
2021/08/19 14:31:18;;;;;;;23.60;15.50;;;18.30;99.90;;;;;;12527154;28;20937;-46
2021/08/19 14:37:22;;;;;;;23.05;15.82;;;18.20;99.90;;;;;;12527444;28;20080;-46
2021/08/19 14:43:27;;;;;;;20.98;15.48;;;18.00;99.90;;;;;;12523833;28;20052;-44
2021/08/19 14:49:29;;;;;;;22.30;15.77;;;17.90;99.90;;;;;;12524161;28;20041;-45
2021/08/19 14:55:39;;;;;;;21.35;14.80;;;18.00;99.90;;;;;;12521993;28;20056;-45
2021/08/19 15:01:41;;;;;;;19.80;14.57;;;18.00;99.90;;;;;;12521598;28;20076;-46
2021/08/19 15:07:46;;;;;;;18.35;13.50;;;18.00;99.90;;;;;;12522397;28;20164;-46
2021/08/19 15:13:57;;;;;;;20.02;14.73;;;18.00;99.90;;;;;;12522934;28;20420;-45
2021/08/19 15:19:59;;;;;;;15.18;11.10;;;18.00;99.90;;;;;;12524754;28;20067;-45
2021/08/19 15:26:02;;;;;;;14.40;11.45;;;17.80;99.90;;;;;;12525336;28;20049;-45
2021/08/19 15:32:11;;;;;;;14.93;10.80;;;17.60;99.90;;;;;;12506646;28;20075;-42
2021/08/19 15:38:14;;;;;;;15.55;11.80;;;17.60;99.90;;;;;;12525037;28;20102;-45
2021/08/19 15:44:19;;;;;;;16.67;12.60;;;17.60;99.90;;;;;;12524410;28;20063;-45
2021/08/19 15:50:22;;;;;;;21.02;15.30;;;17.40;99.90;;;;;;12528836;28;20098;-45
2021/08/19 15:56:29;;;;;;;21.95;15.18;;;17.30;99.90;;;;;;12521597;28;20561;-45
2021/08/19 16:02:32;;;;;;;22.67;15.35;;;17.30;99.90;;;;;;12523922;28;20212;-45
2021/08/19 16:08:41;;;;;;;19.85;13.82;;;17.30;99.90;;;;;;12508045;28;20748;-44
2021/08/19 16:14:43;;;;;;;20.60;14.47;;;17.20;99.90;;;;;;12524474;28;20052;-46
2021/08/19 16:20:46;;;;;;;17.55;12.77;;;17.20;99.90;;;;;;12523818;28;20298;-44
2021/08/19 16:26:48;;;;;;;16.63;12.18;;;17.30;99.90;;;;;;12525487;28;20049;-46
2021/08/19 16:32:50;;;;;;;14.60;10.02;;;17.10;99.90;;;;;;12523473;28;20139;-45
2021/08/19 16:38:55;;;;;;;15.60;10.73;;;17.20;99.90;;;;;;12522050;28;20053;-45
2021/08/19 16:45:10;;;;;;;16.73;12.18;;;17.50;99.90;;;;;;12521858;28;20045;-45
2021/08/19 16:51:15;;;;;;;17.33;12.05;;;17.20;99.90;;;;;;12521566;28;20045;-43
2021/08/19 16:57:17;;;;;;;17.70;12.52;;;17.10;99.90;;;;;;12521876;28;20053;-43
2021/08/19 17:03:19;;;;;;;17.45;12.60;;;17.30;99.90;;;;;;12521369;28;20052;-44
2021/08/19 17:09:22;;;;;;;20.23;14.13;;;17.10;99.90;;;;;;12530937;28;20131;-45
2021/08/19 17:15:23;;;;;;;18.08;13.52;;;17.10;99.90;;;;;;12529295;28;20114;-45
2021/08/19 17:21:26;;;;;;;21.67;14.32;;;17.10;99.90;;;;;;12530788;28;20454;-44
2021/08/19 17:27:28;;;;;;;22.90;15.45;;;17.00;99.90;;;;;;12533536;28;20131;-44
2021/08/19 17:33:31;;;;;;;20.42;13.82;;;17.10;99.90;;;;;;12529672;28;20049;-44
2021/08/19 17:39:34;;;;;;;22.80;14.03;;;16.90;99.90;;;;;;12529823;28;20064;-44
2021/08/19 17:45:37;;;;;;;20.13;13.13;;;16.80;99.90;;;;;;12530212;28;20053;-46
2021/08/19 17:51:39;;;;;;;17.55;11.68;;;16.80;99.90;;;;;;12532756;28;20080;-44
2021/08/19 17:57:41;;;;;;;17.80;10.27;;;16.90;99.90;;;;;;12529768;28;20056;-45
2021/08/19 18:03:43;;;;;;;15.50;10.57;;;16.70;99.90;;;;;;12501473;28;20079;-48
2021/08/19 18:09:46;;;;;;;16.23;10.60;;;16.70;99.90;;;;;;12478966;28;20465;-45
2021/08/19 18:15:49;;;;;;;15.95;10.82;;;16.70;99.90;;;;;;12478667;28;20530;-43
2021/08/19 18:21:51;;;;;;;14.32;10.27;;;16.60;99.90;;;;;;12476752;28;20200;-44
2021/08/19 18:27:53;;;;;;;14.80;10.27;;;16.70;99.90;;;;;;12478514;28;20099;-46
2021/08/19 18:33:55;;;;;;;16.23;10.93;;;16.70;99.90;;;;;;12508290;28;20057;-46
2021/08/19 18:39:57;;;;;;;15.82;11.07;;;16.60;99.90;;;;;;12528896;28;20443;-45
2021/08/19 18:46:02;;;;;;;16.25;11.32;;;16.60;99.90;;;;;;12522908;28;20064;-45
2021/08/19 18:52:05;;;;;;;17.73;12.18;;;16.50;99.90;;;;;;12523685;28;20132;-45
2021/08/19 18:58:07;;;;;;;17.75;11.40;;;16.50;99.90;;;;;;12523804;28;20060;-45
2021/08/19 19:04:10;;;;;;;16.77;11.68;;;16.50;99.90;;;;;;12520653;28;20057;-44
2021/08/19 19:10:12;;;;;;;15.82;13.18;;;16.40;99.90;;;;;;12518340;28;20072;-45
2021/08/19 19:16:17;;;;;;;19.73;13.25;;;16.50;99.90;;;;;;12519908;28;20049;-45
2021/08/19 19:22:20;;;;;;;22.55;14.77;;;16.60;99.90;;;;;;12519971;28;20084;-45
2021/08/19 19:28:21;;;;;;;26.77;15.25;;;16.70;99.90;;;;;;12503358;28;20048;-45
2021/08/19 19:34:26;;;;;;;17.77;14.63;;;16.60;99.90;;;;;;12520110;28;20060;-46
2021/08/19 19:40:34;;;;;;;23.10;16.15;;;16.70;99.90;;;;;;12499718;28;20412;-45
2021/08/19 19:46:36;;;;;;;21.17;15.73;;;16.60;99.90;;;;;;12517743;28;20144;-46
2021/08/19 19:52:38;;;;;;;21.02;16.00;;;16.50;99.90;;;;;;12517160;28;20080;-47
2021/08/19 19:58:41;;;;;;;22.92;15.75;;;16.50;99.90;;;;;;12519975;28;20157;-44
2021/08/19 20:04:54;;;;;;;24.85;16.52;;;16.50;99.90;;;;;;12525800;28;20138;-45
2021/08/19 20:10:59;;;;;;;23.05;17.23;;;16.50;99.90;;;;;;12523975;28;20087;-45
2021/08/19 20:17:01;;;;;;;25.58;17.13;;;16.60;99.90;;;;;;12521824;28;20071;-45
2021/08/19 20:23:04;;;;;;;25.98;17.85;;;16.60;99.90;;;;;;12519891;28;20076;-45
2021/08/19 20:29:06;;;;;;;26.85;18.88;;;16.70;99.90;;;;;;12502805;28;20624;-45
2021/08/19 20:35:09;;;;;;;23.77;18.38;;;16.80;99.90;;;;;;12522088;28;20048;-45
2021/08/19 20:41:11;;;;;;;27.25;19.10;;;16.80;99.90;;;;;;12526844;28;20094;-45
2021/08/19 20:47:13;;;;;;;24.38;18.30;;;17.00;99.90;;;;;;12529527;28;20061;-44
2021/08/19 20:53:15;;;;;;;27.65;19.23;;;16.70;99.90;;;;;;12527499;28;20076;-44
2021/08/19 20:59:17;;;;;;;26.45;19.02;;;16.50;99.90;;;;;;12529978;28;20044;-44
2021/08/19 21:05:19;;;;;;;30.65;22.30;;;16.50;99.90;;;;;;12508571;28;20045;-44
2021/08/19 21:11:21;;;;;;;33.15;22.35;;;16.60;99.90;;;;;;12530311;28;20056;-46
2021/08/19 21:17:23;;;;;;;28.98;21.48;;;16.80;99.90;;;;;;12528744;28;20048;-45
2021/08/19 21:23:25;;;;;;;29.45;23.67;;;16.60;99.90;;;;;;12527186;28;20505;-44
2021/08/19 21:29:27;;;;;;;31.15;22.45;;;16.70;99.90;;;;;;12531553;28;20390;-45
2021/08/19 21:35:29;;;;;;;29.25;22.63;;;16.70;99.90;;;;;;12526734;28;20049;-44
2021/08/19 21:41:31;;;;;;;35.92;22.80;;;16.80;99.90;;;;;;12514970;28;20084;-46
2021/08/19 21:47:33;;;;;;;32.28;21.20;;;16.80;99.90;;;;;;12477050;28;20414;-44
2021/08/19 21:53:36;;;;;;;26.35;19.90;;;16.80;99.90;;;;;;12475259;28;20081;-45
2021/08/19 21:59:37;;;;;;;28.30;19.55;;;16.70;99.90;;;;;;12474504;28;20049;-45
2021/08/19 22:05:39;;;;;;;28.92;19.23;;;16.80;99.90;;;;;;12473509;28;20148;-46
2021/08/19 22:11:41;;;;;;;25.85;18.90;;;16.70;99.90;;;;;;12474718;28;20787;-44
2021/08/19 22:17:47;;;;;;;22.77;17.52;;;16.60;99.90;;;;;;12474485;28;20057;-45
2021/08/19 22:24:00;;;;;;;24.45;17.65;;;16.50;99.90;;;;;;12474977;28;20095;-44
2021/08/19 22:30:11;;;;;;;24.55;18.52;;;16.30;99.90;;;;;;12475984;28;20132;-46
2021/08/19 22:36:18;;;;;;;29.38;19.85;;;16.10;99.90;;;;;;12469926;28;20587;-45
2021/08/19 22:42:21;;;;;;;30.73;19.98;;;16.00;99.90;;;;;;12473840;28;20045;-45
2021/08/19 22:48:23;;;;;;;27.35;20.13;;;16.00;99.90;;;;;;12473275;28;20053;-48
2021/08/19 22:54:25;;;;;;;29.42;22.38;;;15.90;99.90;;;;;;12453260;28;20061;-45
2021/08/19 23:00:27;;;;;;;28.67;21.20;;;15.90;99.90;;;;;;12477638;28;20607;-46
2021/08/19 23:06:29;;;;;;;32.90;22.55;;;15.80;99.90;;;;;;12521485;28;20056;-44
2021/08/19 23:12:31;;;;;;;30.45;22.08;;;15.80;99.90;;;;;;12522613;28;20040;-45
2021/08/19 23:18:33;;;;;;;33.90;25.33;;;15.70;99.90;;;;;;12522142;28;20445;-42
2021/08/19 23:24:35;;;;;;;34.25;24.00;;;15.70;99.90;;;;;;12503634;28;20049;-46
2021/08/19 23:30:39;;;;;;;36.67;27.25;;;15.80;99.90;;;;;;12522803;28;20052;-47
2021/08/19 23:36:41;;;;;;;37.42;27.23;;;15.80;99.90;;;;;;12520346;28;20045;-44
2021/08/19 23:42:43;;;;;;;41.25;26.73;;;15.80;99.90;;;;;;12523634;28;20106;-45
2021/08/19 23:48:45;;;;;;;37.25;29.13;;;15.70;99.90;;;;;;12520230;28;20316;-45
2021/08/19 23:54:49;;;;;;;43.47;30.02;;;15.70;99.90;;;;;;12521553;28;20041;-46
